Time;durP1;ratioP1;P1;durP2;ratioP2;P2;SDS_P1;SDS_P2;PMS_P1;PMS_P2;Temp;Humidity;BMP_temperature;BMP_pressure;BME280_temperature;BME280_humidity;BME280_pressure;Samples;Min_cycle;Max_cycle;Signal;HPM_P1;HPM_P2
2022/08/18 00:01:08;;;;;;;;;;;;;;;22.72;59.22;99129.81;5034211;28;1026;-62
2022/08/18 00:03:34;;;;;;;;;;;;;;;22.59;59.92;99138.69;5034228;28;820;-62
2022/08/18 00:06:01;;;;;;;;;;;;;;;22.51;60.17;99143.22;5016464;28;1414;-62
2022/08/18 00:08:30;;;;;;;;;;;;;;;22.43;60.70;99135.25;5034122;28;812;-62
2022/08/18 00:10:57;;;;;;;;;;;;;;;22.39;60.71;99134.72;5034130;28;864;-62
2022/08/18 00:13:23;;;;;;;;;;;;;;;22.34;61.03;99140.28;5034015;28;884;-62
2022/08/18 00:15:50;;;;;;;;;;;;;;;22.25;61.48;99134.84;5033952;28;1967;-62
2022/08/18 00:18:17;;;;;;;;;;;;;;;22.14;62.20;99141.13;5033921;28;868;-62
2022/08/18 00:20:44;;;;;;;;;;;;;;;22.02;62.47;99137.47;5033917;28;858;-62
2022/08/18 00:23:12;;;;;;;;;;;;;;;21.91;63.13;99142.97;5033974;28;868;-62
2022/08/18 00:25:39;;;;;;;;;;;;;;;21.84;63.27;99143.41;5033822;28;848;-62
2022/08/18 00:28:05;;;;;;;;;;;;;;;21.75;64.03;99147.94;5033994;28;978;-62
2022/08/18 00:30:33;;;;;;;;;;;;;;;21.73;63.85;99141.25;5034041;28;847;-62
2022/08/18 00:33:00;;;;;;;;;;;;;;;21.73;64.19;99142.03;5033741;28;875;-62
2022/08/18 00:35:28;;;;;;;;;;;;;;;21.72;64.56;99143.31;5015698;28;1885;-62
2022/08/18 00:37:56;;;;;;;;;;;;;;;21.73;64.85;99144.06;5033625;28;899;-62
2022/08/18 00:40:24;;;;;;;;;;;;;;;21.74;64.60;99152.03;5033574;28;863;-62
2022/08/18 00:42:52;;;;;;;;;;;;;;;21.70;65.10;99145.06;5033858;28;835;-62
2022/08/18 00:45:24;;;;;;;;;;;;;;;21.64;65.32;99145.00;5033784;28;832;-62
2022/08/18 00:47:51;;;;;;;;;;;;;;;21.63;65.11;99137.06;5033326;28;813;-62
2022/08/18 00:50:25;;;;;;;;;;;;;;;21.55;65.56;99143.13;5033372;28;875;-62
2022/08/18 00:52:56;;;;;;;;;;;;;;;21.42;65.90;99142.69;5033341;28;859;-62
2022/08/18 00:55:24;;;;;;;;;;;;;;;21.40;66.08;99139.56;5033238;28;1947;-62
2022/08/18 00:57:52;;;;;;;;;;;;;;;21.34;66.45;99144.38;5032692;28;936;-62
2022/08/18 01:00:18;;;;;;;;;;;;;;;21.33;66.41;99143.59;5033248;28;835;-62
2022/08/18 01:02:48;;;;;;;;;;;;;;;21.32;66.56;99144.88;5033464;28;1011;-62
2022/08/18 01:05:23;;;;;;;;;;;;;;;21.28;66.58;99140.72;5033522;28;808;-62
2022/08/18 01:07:50;;;;;;;;;;;;;;;21.14;67.32;99147.94;5033052;28;927;-62
2022/08/18 01:10:18;;;;;;;;;;;;;;;20.94;68.08;99149.50;5033000;28;840;-62
2022/08/18 01:12:46;;;;;;;;;;;;;;;20.78;68.72;99148.00;5033046;28;895;-62
2022/08/18 01:15:14;;;;;;;;;;;;;;;20.75;69.10;99143.34;5032897;28;1898;-62
2022/08/18 01:23:15;;;;;;;;;;;;;;;20.73;69.36;99139.50;5032761;28;623;-62
2022/08/18 01:28:30;;;;;;;;;;;;;;;20.83;68.88;99137.34;5032882;28;1266;-62
2022/08/18 01:30:57;;;;;;;;;;;;;;;20.94;68.27;99138.25;5032516;28;919;-62
2022/08/18 01:33:31;;;;;;;;;;;;;;;20.94;68.08;99131.88;5032626;28;808;-62
2022/08/18 01:36:02;;;;;;;;;;;;;;;20.91;68.33;99130.81;5032397;28;1890;-62
2022/08/18 01:38:32;;;;;;;;;;;;;;;21.03;67.79;99128.91;5032503;28;820;-62
2022/08/18 01:40:59;;;;;;;;;;;;;;;21.07;67.47;99131.53;5032653;28;871;-62
2022/08/18 01:43:25;;;;;;;;;;;;;;;21.18;66.84;99132.44;5032856;28;896;-62
2022/08/18 01:45:52;;;;;;;;;;;;;;;21.42;65.60;99123.03;5032583;28;871;-62
2022/08/18 01:48:18;;;;;;;;;;;;;;;21.68;64.61;99117.44;5032835;28;854;-62
2022/08/18 01:50:44;;;;;;;;;;;;;;;22.32;60.11;99117.50;5032602;28;824;-62
2022/08/18 01:53:11;;;;;;;;;;;;;;;23.46;54.21;99116.84;5032314;28;816;-62
2022/08/18 01:55:39;;;;;;;;;;;;;;;24.42;50.45;99109.25;5032209;28;1949;-62
2022/08/18 01:58:06;;;;;;;;;;;;;;;25.02;48.51;99106.81;5032410;28;805;-62
2022/08/18 02:00:35;;;;;;;;;;;;;;;25.36;47.24;99108.78;5014704;28;1442;-62
2022/08/18 02:03:05;;;;;;;;;;;;;;;25.63;45.95;99110.69;5032694;28;955;-62
2022/08/18 02:05:34;;;;;;;;;;;;;;;25.84;45.29;99099.72;5031997;28;872;-62
2022/08/18 02:08:00;;;;;;;;;;;;;;;25.99;44.94;99101.44;5031877;28;882;-62
2022/08/18 02:10:27;;;;;;;;;;;;;;;26.07;44.81;99091.88;5031863;28;871;-62
2022/08/18 02:12:54;;;;;;;;;;;;;;;26.06;45.08;99101.66;5031946;28;828;-61
2022/08/18 02:15:20;;;;;;;;;;;;;;;26.00;45.26;99108.66;5031743;28;1902;-61
2022/08/18 02:17:48;;;;;;;;;;;;;;;25.95;45.07;99106.63;5031817;28;816;-62
2022/08/18 02:20:15;;;;;;;;;;;;;;;25.96;45.04;99097.59;5031783;28;828;-62
2022/08/18 02:22:43;;;;;;;;;;;;;;;26.10;44.45;99109.09;5031691;28;878;-62
2022/08/18 02:25:10;;;;;;;;;;;;;;;26.12;44.39;99095.94;5031744;28;859;-61
2022/08/18 02:27:37;;;;;;;;;;;;;;;26.12;44.79;99098.00;5031684;28;825;-62
2022/08/18 02:30:06;;;;;;;;;;;;;;;26.15;44.49;99105.44;5013878;28;1177;-61
2022/08/18 02:32:32;;;;;;;;;;;;;;;26.12;44.70;99109.31;5031645;28;871;-61
2022/08/18 02:34:59;;;;;;;;;;;;;;;25.98;44.89;99114.06;5031460;28;1871;-61
2022/08/18 02:37:26;;;;;;;;;;;;;;;25.87;45.21;99123.38;5031517;28;812;-61
2022/08/18 02:39:53;;;;;;;;;;;;;;;25.67;45.93;99124.56;5031544;28;816;-61
2022/08/18 02:42:19;;;;;;;;;;;;;;;25.44;46.50;99127.50;5031556;28;820;-61
2022/08/18 02:44:47;;;;;;;;;;;;;;;25.04;48.31;99140.22;5031303;28;893;-61
2022/08/18 02:47:14;;;;;;;;;;;;;;;24.18;50.89;99135.22;5031487;28;879;-61
2022/08/18 02:49:41;;;;;;;;;;;;;;;23.36;53.72;99144.50;5031580;28;895;-61
2022/08/18 02:52:08;;;;;;;;;;;;;;;22.77;55.43;99148.81;5031404;28;886;-61
2022/08/18 02:54:35;;;;;;;;;;;;;;;22.30;57.35;99151.03;5031273;28;2020;-61
2022/08/18 02:57:05;;;;;;;;;;;;;;;21.91;58.98;99148.59;5031358;28;922;-62
2022/08/18 02:59:31;;;;;;;;;;;;;;;21.62;60.68;99164.41;5031310;28;859;-62
2022/08/18 03:01:58;;;;;;;;;;;;;;;21.49;61.21;99166.81;5031412;28;1003;-62
2022/08/18 03:04:26;;;;;;;;;;;;;;;21.37;62.06;99174.31;5031283;28;836;-62
2022/08/18 03:06:57;;;;;;;;;;;;;;;21.20;62.76;99171.28;5031337;28;944;-62
2022/08/18 03:09:24;;;;;;;;;;;;;;;21.12;63.51;99172.97;5013475;28;1197;-61
2022/08/18 03:11:52;;;;;;;;;;;;;;;21.19;63.37;99167.72;5031257;28;832;-62
2022/08/18 03:14:18;;;;;;;;;;;;;;;21.23;63.31;99167.50;5030931;28;1970;-62
2022/08/18 03:16:46;;;;;;;;;;;;;;;21.20;63.62;99165.66;5013506;28;1256;-61
2022/08/18 03:19:15;;;;;;;;;;;;;;;21.20;63.71;99174.09;5031098;28;855;-62
2022/08/18 03:21:42;;;;;;;;;;;;;;;21.26;63.43;99174.94;5032448;28;883;-62
2022/08/18 03:24:09;;;;;;;;;;;;;;;21.25;63.69;99176.22;5035053;28;871;-62
2022/08/18 03:26:38;;;;;;;;;;;;;;;21.25;63.85;99178.22;5034914;28;817;-61
2022/08/18 03:29:05;;;;;;;;;;;;;;;21.21;64.25;99182.03;5034905;28;854;-61
2022/08/18 03:31:32;;;;;;;;;;;;;;;21.15;64.42;99189.63;5034846;28;796;-62
2022/08/18 03:34:00;;;;;;;;;;;;;;;21.10;64.86;99181.91;5034827;28;824;-62
2022/08/18 03:36:30;;;;;;;;;;;;;;;21.14;64.64;99185.25;5034727;28;1961;-61
2022/08/18 03:38:57;;;;;;;;;;;;;;;21.26;64.39;99186.19;5034769;28;857;-61
2022/08/18 03:41:25;;;;;;;;;;;;;;;21.30;64.42;99186.75;5034658;28;853;-61
2022/08/18 03:43:52;;;;;;;;;;;;;;;21.25;64.46;99186.66;5016826;28;1224;-62
2022/08/18 03:46:20;;;;;;;;;;;;;;;21.22;64.52;99191.22;5034608;28;902;-62
2022/08/18 03:48:48;;;;;;;;;;;;;;;21.20;64.69;99180.47;5034541;28;873;-61
2022/08/18 03:51:17;;;;;;;;;;;;;;;21.18;64.77;99183.00;5016790;28;1169;-61
2022/08/18 03:53:44;;;;;;;;;;;;;;;21.20;64.76;99186.09;5034447;28;992;-61
2022/08/18 03:56:14;;;;;;;;;;;;;;;21.27;64.55;99182.09;5034293;28;1882;-61
2022/08/18 03:58:46;;;;;;;;;;;;;;;21.44;64.18;99175.94;5034326;28;903;-61
2022/08/18 04:01:16;;;;;;;;;;;;;;;21.59;63.65;99169.00;5034579;28;985;-62
2022/08/18 04:03:44;;;;;;;;;;;;;;;21.72;63.36;99165.00;5034221;28;816;-61
2022/08/18 04:06:17;;;;;;;;;;;;;;;21.78;63.56;99163.03;5034215;28;840;-61
2022/08/18 04:08:45;;;;;;;;;;;;;;;21.92;62.86;99167.78;5034210;28;872;-61
2022/08/18 04:11:14;;;;;;;;;;;;;;;22.21;61.80;99175.22;5034099;28;871;-59
2022/08/18 04:13:40;;;;;;;;;;;;;;;22.51;60.72;99168.56;5034242;28;864;-62
2022/08/18 04:16:07;;;;;;;;;;;;;;;22.59;60.54;99172.47;5033790;28;1971;-61
2022/08/18 04:18:34;;;;;;;;;;;;;;;22.57;60.77;99172.22;5034057;28;899;-62
2022/08/18 04:21:06;;;;;;;;;;;;;;;22.57;60.85;99175.03;5034027;28;824;-61
2022/08/18 04:23:33;;;;;;;;;;;;;;;22.54;61.05;99184.47;5034026;28;915;-62
2022/08/18 04:26:01;;;;;;;;;;;;;;;22.58;61.14;99177.34;5033823;28;856;-62
2022/08/18 04:28:28;;;;;;;;;;;;;;;22.63;60.99;99176.59;5033823;28;832;-61
2022/08/18 04:30:58;;;;;;;;;;;;;;;22.78;60.39;99184.91;5015944;28;1280;-62
2022/08/18 04:33:25;;;;;;;;;;;;;;;22.87;60.17;99180.34;5032485;28;827;-61
2022/08/18 04:35:52;;;;;;;;;;;;;;;22.92;60.28;99188.09;5033624;28;1902;-61
2022/08/18 04:38:20;;;;;;;;;;;;;;;23.05;60.39;99182.81;5033577;28;880;-61
2022/08/18 04:40:46;;;;;;;;;;;;;;;23.21;60.73;99182.13;5033632;28;836;-61
2022/08/18 04:43:14;;;;;;;;;;;;;;;23.36;60.81;99183.97;5033458;28;820;-61
2022/08/18 04:45:49;;;;;;;;;;;;;;;23.58;60.07;99192.53;5033487;28;824;-61
2022/08/18 04:48:16;;;;;;;;;;;;;;;23.87;59.06;99187.75;5033480;28;891;-61
2022/08/18 04:50:43;;;;;;;;;;;;;;;24.11;58.48;99187.31;5033605;28;816;-61
2022/08/18 04:55:54;;;;;;;;;;;;;;;24.54;57.38;99189.91;5033439;28;1947;-61
2022/08/18 04:58:22;;;;;;;;;;;;;;;24.74;56.83;99185.28;5033944;28;788;-61
2022/08/18 05:00:58;;;;;;;;;;;;;;;24.92;56.23;99187.56;5033378;28;859;-61
2022/08/18 05:03:25;;;;;;;;;;;;;;;25.25;53.11;99186.72;5033220;28;804;-61
2022/08/18 05:05:57;;;;;;;;;;;;;;;25.64;51.65;99185.00;5033269;28;938;-61
2022/08/18 05:08:24;;;;;;;;;;;;;;;25.99;49.57;99192.03;5033043;28;855;-61
2022/08/18 05:10:54;;;;;;;;;;;;;;;26.24;48.98;99190.84;5033285;28;801;-61
2022/08/18 05:13:21;;;;;;;;;;;;;;;26.31;48.65;99191.56;5032890;28;1154;-61
2022/08/18 05:15:56;;;;;;;;;;;;;;;26.44;48.19;99191.72;5032840;28;1976;-61
2022/08/18 05:18:24;;;;;;;;;;;;;;;26.62;47.56;99190.31;5032982;28;856;-61
2022/08/18 05:20:51;;;;;;;;;;;;;;;26.92;47.34;99192.34;5032797;28;856;-61
2022/08/18 05:23:19;;;;;;;;;;;;;;;27.31;47.44;99188.31;5032806;28;813;-61
2022/08/18 05:25:46;;;;;;;;;;;;;;;27.54;46.11;99189.59;5032723;28;938;-61
2022/08/18 05:28:13;;;;;;;;;;;;;;;27.62;46.35;99182.00;5032973;28;879;-61
2022/08/18 05:30:40;;;;;;;;;;;;;;;27.63;45.43;99180.72;5032619;28;868;-61
2022/08/18 05:33:09;;;;;;;;;;;;;;;27.58;45.50;99180.78;5032642;28;805;-61
2022/08/18 05:35:40;;;;;;;;;;;;;;;27.49;46.02;99177.00;5032428;28;1890;-61
2022/08/18 05:38:21;;;;;;;;;;;;;;;27.44;45.38;99171.38;5032540;28;824;-61
2022/08/18 05:41:08;;;;;;;;;;;;;;;27.49;45.22;99170.56;5032467;28;852;-61
2022/08/18 05:43:37;;;;;;;;;;;;;;;27.57;45.49;99174.34;5001031;28;1206;-59
2022/08/18 05:49:05;;;;;;;;;;;;;;;27.83;45.02;99176.56;5032728;28;627;-61
2022/08/18 05:51:53;;;;;;;;;;;;;;;27.93;44.38;99176.19;5032484;28;808;-62
2022/08/18 06:03:49;;;;;;;;;;;;;;;28.83;42.23;99183.28;5032569;28;619;-61
2022/08/18 06:06:35;;;;;;;;;;;;;;;29.22;41.71;99176.84;4951839;29;999;-60
2022/08/18 06:09:11;;;;;;;;;;;;;;;29.55;41.26;99171.78;4951883;29;1088;-61
2022/08/18 06:11:39;;;;;;;;;;;;;;;29.94;40.85;99181.56;4951868;29;1070;-61
2022/08/18 06:14:06;;;;;;;;;;;;;;;30.18;40.32;99177.63;4951624;28;1224;-61
2022/08/18 06:16:37;;;;;;;;;;;;;;;30.41;39.17;99177.88;4951753;29;1906;-61
2022/08/18 06:22:14;;;;;;;;;;;;;;;30.54;38.19;99191.31;4951701;29;613;-61
2022/08/18 06:24:45;;;;;;;;;;;;;;;30.69;38.40;99202.06;4951563;29;1042;-61
2022/08/18 06:27:21;;;;;;;;;;;;;;;30.76;38.60;99204.22;4951563;29;852;-62
2022/08/18 06:36:01;;;;;;;;;;;;;;;31.29;37.10;99218.13;4951508;29;1966;-60
2022/08/18 06:38:49;;;;;;;;;;;;;;;31.16;37.27;99212.53;4951758;29;837;-62
2022/08/18 06:41:19;;;;;;;;;;;;;;;31.08;37.38;99223.88;4951743;29;997;-61
2022/08/18 06:43:57;;;;;;;;;;;;;;;31.01;37.86;99226.69;4997113;28;917;-61
2022/08/18 06:46:28;;;;;;;;;;;;;;;30.99;37.81;99223.63;5031434;28;947;-61
2022/08/18 06:48:57;;;;;;;;;;;;;;;30.85;37.59;99220.81;5031436;28;852;-61
2022/08/18 06:51:26;;;;;;;;;;;;;;;30.86;38.04;99224.47;5031544;28;981;-61
2022/08/18 06:53:56;;;;;;;;;;;;;;;31.07;37.44;99222.34;5013736;28;1306;-62
2022/08/18 06:56:25;;;;;;;;;;;;;;;31.16;37.41;99220.31;5032141;28;1886;-62
2022/08/18 06:58:54;;;;;;;;;;;;;;;31.20;37.67;99227.19;5035744;28;849;-61
2022/08/18 07:01:22;;;;;;;;;;;;;;;31.43;37.10;99218.81;5035502;28;915;-61
2022/08/18 07:03:53;;;;;;;;;;;;;;;31.49;36.27;99230.03;5035405;28;852;-61
2022/08/18 07:06:20;;;;;;;;;;;;;;;31.40;36.57;99219.13;5035337;28;844;-63
2022/08/18 07:08:48;;;;;;;;;;;;;;;31.32;36.69;99222.72;5035281;28;879;-61
2022/08/18 07:11:19;;;;;;;;;;;;;;;31.32;37.02;99221.94;5035138;28;824;-61
2022/08/18 07:13:47;;;;;;;;;;;;;;;31.61;37.03;99233.34;5035189;28;871;-61
2022/08/18 07:16:29;;;;;;;;;;;;;;;31.76;36.95;99222.00;5034987;28;1902;-61
2022/08/18 07:19:09;;;;;;;;;;;;;;;31.91;36.18;99229.84;5035104;28;883;-61
2022/08/18 07:21:38;;;;;;;;;;;;;;;32.18;35.91;99233.22;5035136;28;864;-61
2022/08/18 07:27:13;;;;;;;;;;;;;;;33.02;35.12;99226.03;5035204;28;627;-61
2022/08/18 07:33:13;;;;;;;;;;;;;;;33.96;33.46;99237.47;4974117;28;935;-60
2022/08/18 07:35:48;;;;;;;;;;;;;;;34.23;32.89;99243.47;4973787;28;1887;-61
2022/08/18 07:41:31;;;;;;;;;;;;;;;34.25;32.74;99235.06;4973631;28;1066;-61
2022/08/18 07:47:12;;;;;;;;;;;;;;;34.45;33.12;99249.66;4973801;28;671;-61
2022/08/18 07:49:41;;;;;;;;;;;;;;;34.60;31.90;99238.06;4973678;28;942;-60
2022/08/18 07:52:11;;;;;;;;;;;;;;;34.52;31.67;99229.50;4973651;28;872;-60
2022/08/18 07:54:46;;;;;;;;;;;;;;;34.65;31.70;99239.94;4973515;28;1961;-60
2022/08/18 07:57:27;;;;;;;;;;;;;;;34.99;31.83;99235.66;4973979;28;927;-60
2022/08/18 08:03:07;;;;;;;;;;;;;;;34.83;31.38;99240.00;4973354;28;915;-61
2022/08/18 08:05:42;;;;;;;;;;;;;;;34.99;31.32;99235.66;4973363;28;857;-61
2022/08/18 08:08:12;;;;;;;;;;;;;;;35.31;31.12;99236.91;4973052;28;940;-61
2022/08/18 08:10:50;;;;;;;;;;;;;;;35.42;30.74;99238.50;4957012;28;1190;-61
2022/08/18 08:13:17;;;;;;;;;;;;;;;35.55;30.35;99233.19;4973183;28;825;-61
2022/08/18 08:15:56;;;;;;;;;;;;;;;35.62;30.56;99231.56;4970720;28;1926;-61
2022/08/18 08:18:38;;;;;;;;;;;;;;;35.76;30.37;99229.13;4992607;28;957;-61
2022/08/18 08:21:07;;;;;;;;;;;;;;;35.95;30.19;99234.25;4992718;28;840;-61
2022/08/18 08:23:33;;;;;;;;;;;;;;;35.92;30.06;99238.31;4992490;28;901;-61
2022/08/18 08:26:17;;;;;;;;;;;;;;;35.74;30.00;99237.56;4992522;28;930;-61
2022/08/18 08:29:08;;;;;;;;;;;;;;;35.53;30.11;99238.75;5005717;28;882;-61
2022/08/18 08:31:41;;;;;;;;;;;;;;;35.54;30.42;99239.53;5033894;28;872;-61
2022/08/18 08:37:29;;;;;;;;;;;;;;;35.78;30.42;99249.41;5033759;28;687;-61
2022/08/18 08:39:56;;;;;;;;;;;;;;;35.64;29.38;99248.25;5033725;28;835;-62
2022/08/18 08:42:27;;;;;;;;;;;;;;;35.63;29.81;99247.44;5033771;28;851;-61
2022/08/18 08:45:00;;;;;;;;;;;;;;;35.80;29.87;99248.81;5015672;28;1398;-62
2022/08/18 08:47:47;;;;;;;;;;;;;;;36.19;29.93;99241.25;5033784;28;821;-61
2022/08/18 08:50:17;;;;;;;;;;;;;;;36.76;29.12;99240.00;5008551;28;1220;-61
2022/08/18 08:52:53;;;;;;;;;;;;;;;37.27;27.74;99231.66;5033389;28;813;-62
2022/08/18 08:55:25;;;;;;;;;;;;;;;37.62;27.26;99236.38;5033515;28;1898;-61
2022/08/18 08:57:56;;;;;;;;;;;;;;;37.89;26.89;99233.31;5033284;28;820;-61
2022/08/18 09:00:23;;;;;;;;;;;;;;;37.57;27.29;99238.97;5033301;28;891;-61
2022/08/18 09:02:57;;;;;;;;;;;;;;;37.30;27.57;99241.97;5033055;28;895;-60
2022/08/18 09:08:45;;;;;;;;;;;;;;;36.89;28.40;99224.41;5033133;28;639;-60
2022/08/18 09:11:31;;;;;;;;;;;;;;;36.99;27.79;99228.09;5033111;28;872;-61
2022/08/18 09:17:10;;;;;;;;;;;;;;;37.13;27.24;99225.56;5044473;28;1165;-61
2022/08/18 09:19:36;;;;;;;;;;;;;;;37.62;27.19;99227.72;5032172;28;829;-61
2022/08/18 09:22:24;;;;;;;;;;;;;;;37.56;26.27;99225.94;5032893;28;796;-61
2022/08/18 09:24:53;;;;;;;;;;;;;;;37.07;27.18;99235.84;5032757;28;860;-61
2022/08/18 09:30:36;;;;;;;;;;;;;;;36.61;27.90;99222.97;5032795;28;630;-61
2022/08/18 10:01:55;;;;;;;;;;;;;;;36.29;28.57;99209.66;6015168;22;1687;-62
2022/08/18 10:04:29;;;;;;;;;;;;;;;35.63;29.03;99204.34;5071937;28;901;-62
2022/08/18 10:07:16;;;;;;;;;;;;;;;34.76;30.21;99212.91;5072275;28;866;-62
2022/08/18 10:09:56;;;;;;;;;;;;;;;34.23;30.54;99203.31;5024032;28;1189;-63
2022/08/18 10:12:40;;;;;;;;;;;;;;;34.25;30.44;99212.09;5071900;28;847;-62
2022/08/18 10:15:25;;;;;;;;;;;;;;;34.51;30.23;99215.75;5071708;28;2024;-62
2022/08/18 10:17:54;;;;;;;;;;;;;;;35.09;29.95;99216.41;5071828;28;819;-62
2022/08/18 10:20:40;;;;;;;;;;;;;;;35.46;29.60;99210.09;5071769;28;858;-62
2022/08/18 10:23:08;;;;;;;;;;;;;;;35.53;29.84;99212.16;5071673;28;856;-62
2022/08/18 10:25:45;;;;;;;;;;;;;;;35.43;29.42;99217.81;5071948;28;844;-62
2022/08/18 10:28:43;;;;;;;;;;;;;;;34.65;30.42;99211.25;5071709;28;827;-62
2022/08/18 10:31:11;;;;;;;;;;;;;;;34.55;30.69;99204.63;5071421;28;1535;-62
2022/08/18 10:36:40;;;;;;;;;;;;;;;36.09;29.49;99197.25;5071803;28;1881;-61
2022/08/18 10:39:11;;;;;;;;;;;;;;;36.14;28.72;99199.88;5071756;28;878;-62
2022/08/18 10:41:50;;;;;;;;;;;;;;;35.57;29.04;99200.97;5071665;28;823;-62
2022/08/18 10:44:21;;;;;;;;;;;;;;;34.72;29.55;99204.69;5071537;28;838;-62
2022/08/18 10:46:48;;;;;;;;;;;;;;;34.28;30.22;99199.47;5087118;28;827;-63
2022/08/18 11:01:28;;;;;;;;;;;;;;;33.92;31.39;99205.56;5071562;28;951;-63
2022/08/18 11:03:55;;;;;;;;;;;;;;;33.62;32.23;99209.34;5071298;28;1383;-64
2022/08/18 11:06:25;;;;;;;;;;;;;;;33.49;32.53;99213.19;5071299;28;807;-63
2022/08/18 11:08:56;;;;;;;;;;;;;;;34.70;31.02;99201.66;5071603;28;878;-63
2022/08/18 11:11:27;;;;;;;;;;;;;;;36.31;29.71;99199.06;5071237;28;818;-63
2022/08/18 11:13:59;;;;;;;;;;;;;;;37.74;27.87;99185.41;5071215;28;826;-62
2022/08/18 11:16:34;;;;;;;;;;;;;;;37.84;27.61;99196.91;5071095;28;1917;-62
2022/08/18 11:19:08;;;;;;;;;;;;;;;37.03;28.33;99184.44;5053405;28;1413;-62
2022/08/18 11:21:38;;;;;;;;;;;;;;;36.57;28.55;99182.34;5071167;28;894;-62
2022/08/18 11:24:15;;;;;;;;;;;;;;;35.82;29.13;99191.50;5071052;28;874;-63
2022/08/18 11:26:46;;;;;;;;;;;;;;;35.09;30.57;99184.81;5071142;28;866;-63
2022/08/18 11:29:20;;;;;;;;;;;;;;;35.00;30.80;99193.38;5053028;28;880;-64
2022/08/18 11:31:46;;;;;;;;;;;;;;;35.92;29.92;99193.06;5071212;28;811;-63
2022/08/18 11:34:17;;;;;;;;;;;;;;;36.94;28.91;99183.06;5071040;28;906;-63
2022/08/18 11:40:07;;;;;;;;;;;;;;;38.73;26.97;99170.81;5071022;28;622;-62
2022/08/18 11:42:52;;;;;;;;;;;;;;;38.70;26.29;99163.34;5071885;28;858;-62
2022/08/18 11:45:21;;;;;;;;;;;;;;;38.01;26.51;99162.13;5074657;28;878;-62
2022/08/18 11:48:02;;;;;;;;;;;;;;;37.37;27.29;99163.25;5056598;28;1333;-62
2022/08/18 11:50:32;;;;;;;;;;;;;;;36.68;28.50;99164.53;5074520;28;807;-63
2022/08/18 11:53:12;;;;;;;;;;;;;;;35.88;28.87;99166.88;5074658;28;843;-63
2022/08/18 11:55:39;;;;;;;;;;;;;;;34.81;30.01;99170.97;5074344;28;1878;-61
2022/08/18 11:58:06;;;;;;;;;;;;;;;34.54;30.59;99166.56;5074707;28;872;-64
2022/08/18 12:00:40;;;;;;;;;;;;;;;34.53;30.93;99173.66;5074313;28;870;-63
2022/08/18 12:03:14;;;;;;;;;;;;;;;34.52;30.84;99166.38;5074632;28;1104;-63
2022/08/18 12:05:43;;;;;;;;;;;;;;;34.44;31.10;99165.69;5074439;28;826;-64
2022/08/18 12:08:35;;;;;;;;;;;;;;;34.34;30.81;99165.56;5074457;28;886;-63
2022/08/18 12:11:14;;;;;;;;;;;;;;;34.20;31.30;99163.56;5035934;28;1377;-64
2022/08/18 12:13:58;;;;;;;;;;;;;;;34.08;31.61;99157.53;5074198;28;839;-64
2022/08/18 12:16:34;;;;;;;;;;;;;;;33.80;31.97;99150.03;5074310;28;1909;-64
2022/08/18 12:19:01;;;;;;;;;;;;;;;33.48;31.71;99163.72;5073958;28;886;-64
2022/08/18 12:21:28;;;;;;;;;;;;;;;33.25;32.05;99158.09;5056064;28;1309;-64
2022/08/18 12:23:54;;;;;;;;;;;;;;;33.17;32.40;99154.47;5074102;28;863;-64
2022/08/18 12:26:21;;;;;;;;;;;;;;;33.26;31.95;99150.25;5073910;28;815;-64
2022/08/18 12:28:48;;;;;;;;;;;;;;;33.45;32.07;99156.28;5073753;28;795;-64
2022/08/18 12:31:14;;;;;;;;;;;;;;;33.63;31.51;99145.75;5073879;28;890;-64
2022/08/18 12:33:43;;;;;;;;;;;;;;;33.69;31.46;99145.50;5073794;28;876;-64
2022/08/18 12:36:21;;;;;;;;;;;;;;;33.84;31.62;99142.59;5073767;28;1881;-64
2022/08/18 12:38:56;;;;;;;;;;;;;;;33.99;31.31;99138.84;5074449;28;871;-64
2022/08/18 12:41:22;;;;;;;;;;;;;;;34.42;30.79;99144.66;5073611;28;795;-64
2022/08/18 12:43:49;;;;;;;;;;;;;;;34.72;29.92;99150.19;5073639;28;878;-64
2022/08/18 12:46:17;;;;;;;;;;;;;;;34.85;29.80;99151.97;5055556;28;1519;-64
2022/08/18 12:48:46;;;;;;;;;;;;;;;35.31;29.90;99157.22;5073473;28;855;-64
2022/08/18 12:51:13;;;;;;;;;;;;;;;35.08;30.04;99154.59;5073464;28;858;-64
2022/08/18 12:53:40;;;;;;;;;;;;;;;34.57;30.83;99150.28;5072584;28;823;-64
2022/08/18 12:56:18;;;;;;;;;;;;;;;34.10;30.89;99147.00;5073046;28;1930;-64
2022/08/18 12:58:44;;;;;;;;;;;;;;;33.57;32.08;99153.75;5073871;28;775;-64
2022/08/18 13:01:13;;;;;;;;;;;;;;;33.11;32.90;99153.91;5073258;28;1122;-64
2022/08/18 13:03:38;;;;;;;;;;;;;;;32.66;33.33;99149.78;5073776;28;1217;-63
2022/08/18 13:06:04;;;;;;;;;;;;;;;32.38;33.24;99147.84;5073077;28;874;-63
2022/08/18 13:08:31;;;;;;;;;;;;;;;32.25;34.00;99148.78;5073094;28;855;-63
2022/08/18 13:10:59;;;;;;;;;;;;;;;32.22;33.78;99147.06;5073016;28;893;-63
2022/08/18 13:13:24;;;;;;;;;;;;;;;32.30;33.61;99145.72;5072979;28;874;-63
2022/08/18 13:15:53;;;;;;;;;;;;;;;32.47;33.98;99147.28;5072875;28;1914;-63
2022/08/18 13:18:20;;;;;;;;;;;;;;;32.68;33.78;99149.97;5072821;28;847;-64
2022/08/18 13:33:24;;;;;;;;;;;;;;;33.02;34.14;99155.25;5072754;28;733;-63
2022/08/18 13:35:51;;;;;;;;;;;;;;;33.19;35.16;99151.81;5072453;28;1914;-63
2022/08/18 13:38:19;;;;;;;;;;;;;;;34.68;33.17;99152.69;5072567;28;890;-63
2022/08/18 13:40:47;;;;;;;;;;;;;;;36.60;31.09;99149.50;5072651;28;893;-63
2022/08/18 13:43:15;;;;;;;;;;;;;;;37.58;29.34;99144.63;5072725;28;893;-63
2022/08/18 13:45:43;;;;;;;;;;;;;;;37.66;30.45;99136.56;5072325;28;878;-63
2022/08/18 13:48:11;;;;;;;;;;;;;;;36.82;31.72;99149.72;5072215;28;958;-63
2022/08/18 13:50:39;;;;;;;;;;;;;;;35.39;33.70;99154.28;5072307;28;885;-63
2022/08/18 13:53:11;;;;;;;;;;;;;;;34.45;35.16;99154.97;5072251;28;893;-64
2022/08/18 13:55:36;;;;;;;;;;;;;;;35.14;34.53;99155.16;5054234;28;1956;-63
2022/08/18 13:58:02;;;;;;;;;;;;;;;36.46;33.09;99151.25;5072042;28;905;-63
2022/08/18 14:00:28;;;;;;;;;;;;;;;37.01;31.99;99140.34;5072079;28;814;-63
2022/08/18 14:02:55;;;;;;;;;;;;;;;35.86;33.59;99152.34;5072065;28;1346;-63
2022/08/18 14:05:22;;;;;;;;;;;;;;;35.03;35.14;99149.09;5071738;28;858;-63
2022/08/18 14:07:47;;;;;;;;;;;;;;;33.97;36.94;99142.31;5071938;28;891;-63
2022/08/18 14:10:14;;;;;;;;;;;;;;;33.14;38.91;99156.41;5071967;28;856;-63
2022/08/18 14:12:41;;;;;;;;;;;;;;;32.64;40.17;99170.38;5071816;28;826;-63
2022/08/18 14:15:08;;;;;;;;;;;;;;;32.40;40.31;99171.69;5071997;28;1985;-63
2022/08/18 14:17:34;;;;;;;;;;;;;;;32.20;40.55;99178.31;5071798;28;923;-63
2022/08/18 14:28:17;;;;;;;;;;;;;;;31.41;40.15;99172.09;5071633;28;682;-63
2022/08/18 14:30:44;;;;;;;;;;;;;;;31.40;40.16;99182.00;5071602;28;1149;-63
2022/08/18 14:33:13;;;;;;;;;;;;;;;31.51;41.05;99187.41;5071634;28;889;-63
2022/08/18 14:35:39;;;;;;;;;;;;;;;31.51;40.25;99202.44;5071453;28;1956;-63
2022/08/18 14:38:06;;;;;;;;;;;;;;;31.49;40.74;99195.78;5053595;28;1318;-63
2022/08/18 14:40:33;;;;;;;;;;;;;;;31.56;40.48;99202.84;5071488;28;1133;-63
2022/08/18 14:43:01;;;;;;;;;;;;;;;31.47;40.83;99213.50;5071496;28;1081;-63
2022/08/18 14:45:29;;;;;;;;;;;;;;;30.90;42.08;99211.41;5071505;28;890;-63
2022/08/18 14:47:55;;;;;;;;;;;;;;;30.40;44.00;99210.56;5071417;28;882;-63
2022/08/18 14:50:21;;;;;;;;;;;;;;;30.18;45.45;99223.22;5071481;28;898;-63
2022/08/18 14:52:47;;;;;;;;;;;;;;;30.17;46.15;99224.56;5071430;28;823;-63
2022/08/18 14:55:14;;;;;;;;;;;;;;;30.24;45.42;99225.97;5071274;28;1910;-63
2022/08/18 14:57:39;;;;;;;;;;;;;;;30.55;44.08;99204.22;5053248;28;1360;-63
2022/08/18 15:00:15;;;;;;;;;;;;;;;30.76;43.74;99195.66;5071359;28;886;-63
2022/08/18 15:02:41;;;;;;;;;;;;;;;31.26;42.41;99196.41;5071460;28;1120;-63
2022/08/18 15:05:08;;;;;;;;;;;;;;;31.57;40.34;99190.88;5071449;28;870;-63
2022/08/18 15:07:34;;;;;;;;;;;;;;;31.59;40.17;99181.75;5071503;28;877;-63
2022/08/18 15:09:59;;;;;;;;;;;;;;;31.73;40.82;99186.75;5071999;28;799;-63
2022/08/18 15:12:26;;;;;;;;;;;;;;;31.55;40.90;99196.38;5071219;28;862;-63
2022/08/18 15:14:52;;;;;;;;;;;;;;;31.07;42.37;99205.25;5071135;28;1914;-63
2022/08/18 15:17:17;;;;;;;;;;;;;;;30.91;42.84;99198.66;5072112;28;830;-63
2022/08/18 15:19:46;;;;;;;;;;;;;;;30.64;43.25;99200.91;5075509;28;863;-63
2022/08/18 15:27:39;;;;;;;;;;;;;;;30.26;45.82;99201.28;5075000;28;622;-63
2022/08/18 15:30:07;;;;;;;;;;;;;;;30.34;45.17;99195.66;5074987;28;868;-63
2022/08/18 15:32:33;;;;;;;;;;;;;;;30.41;45.05;99194.22;5074938;28;856;-63
2022/08/18 15:34:59;;;;;;;;;;;;;;;30.43;45.30;99180.19;5074812;28;1890;-63